Time;durP1;ratioP1;P1;durP2;ratioP2;P2;SDS_P1;SDS_P2;PMS_P1;PMS_P2;Temp;Humidity;BMP_temperature;BMP_pressure;BME280_temperature;BME280_humidity;BME280_pressure;Samples;Min_cycle;Max_cycle;Signal;HPM_P1;HPM_P2
2023/06/27 00:01:39;;;;;;;14.73;4.80;;;18.00;99.90;;;;;;5070480;28;20024;-68
2023/06/27 00:04:08;;;;;;;9.80;3.20;;;18.00;99.90;;;;;;5060436;28;20044;-71
2023/06/27 00:06:40;;;;;;;16.20;4.78;;;18.10;99.90;;;;;;5065293;28;20028;-71
2023/06/27 00:09:10;;;;;;;14.57;4.65;;;18.00;99.90;;;;;;5070590;28;20479;-70
2023/06/27 00:11:39;;;;;;;16.15;4.47;;;18.00;99.90;;;;;;5058396;28;20431;-71
2023/06/27 00:14:08;;;;;;;15.07;4.55;;;18.00;99.90;;;;;;5088264;28;20024;-70
2023/06/27 00:16:34;;;;;;;14.98;4.45;;;18.00;99.90;;;;;;5078504;28;20383;-68
2023/06/27 00:19:02;;;;;;;15.32;5.00;;;18.00;99.90;;;;;;5078179;28;20413;-71
2023/06/27 00:21:29;;;;;;;20.60;4.90;;;17.90;99.90;;;;;;5066766;28;20066;-70
2023/06/27 00:23:59;;;;;;;16.90;4.50;;;17.90;99.90;;;;;;5083301;28;20045;-70
2023/06/27 00:26:25;;;;;;;11.57;4.20;;;17.90;99.90;;;;;;5063428;28;20025;-70
2023/06/27 00:28:51;;;;;;;14.25;4.20;;;17.90;99.90;;;;;;5068226;28;20800;-71
2023/06/27 00:31:16;;;;;;;13.65;5.40;;;17.90;99.90;;;;;;5075402;28;20036;-70
2023/06/27 00:33:42;;;;;;;12.43;3.80;;;17.80;99.90;;;;;;5083382;28;20039;-72
2023/06/27 00:36:07;;;;;;;13.70;4.28;;;17.70;99.90;;;;;;5080695;28;20121;-71
2023/06/27 00:38:33;;;;;;;14.93;4.38;;;17.60;99.90;;;;;;5063858;28;20027;-70
2023/06/27 00:40:59;;;;;;;13.30;3.97;;;17.50;99.90;;;;;;5074074;28;20354;-70
2023/06/27 00:43:28;;;;;;;16.10;5.07;;;17.50;99.90;;;;;;5076976;28;20044;-69
2023/06/27 00:45:53;;;;;;;15.25;5.18;;;17.40;99.90;;;;;;5083604;28;20108;-68
2023/06/27 00:48:19;;;;;;;15.85;6.28;;;17.40;99.90;;;;;;5075563;28;20451;-69
2023/06/27 00:50:45;;;;;;;12.63;4.20;;;17.30;99.90;;;;;;5078904;28;20040;-68
2023/06/27 00:53:11;;;;;;;14.50;5.15;;;17.30;99.90;;;;;;5081004;28;20026;-72
2023/06/27 00:55:39;;;;;;;13.23;4.25;;;17.20;99.90;;;;;;5081370;28;20028;-69
2023/06/27 00:58:09;;;;;;;12.75;4.78;;;17.20;99.90;;;;;;5067437;28;20040;-71
2023/06/27 01:00:37;;;;;;;15.85;4.50;;;17.10;99.90;;;;;;5064648;28;20126;-71
2023/06/27 01:03:03;;;;;;;10.18;5.07;;;17.10;99.90;;;;;;5070145;28;20134;-70
2023/06/27 01:05:35;;;;;;;15.90;4.55;;;17.00;99.90;;;;;;5080275;28;20033;-71
2023/06/27 03:06:50;;;;;;;6.82;1.70;;;16.20;99.90;;;;;;5071868;28;20055;-70
2023/06/27 05:34:03;;;;;;;7.07;2.10;;;19.10;99.90;;;;;;5061611;28;20137;-70
2023/06/27 05:36:29;;;;;;;9.38;3.00;;;19.30;99.90;;;;;;5055447;28;20074;-69
2023/06/27 05:38:54;;;;;;;12.80;2.75;;;19.50;99.90;;;;;;5073740;28;20099;-70
2023/06/27 05:41:20;;;;;;;7.65;3.35;;;19.90;99.90;;;;;;5072656;28;20044;-70
2023/06/27 05:43:45;;;;;;;11.40;3.55;;;20.40;99.90;;;;;;5088404;28;20043;-68
2023/06/27 05:46:11;;;;;;;4.00;1.70;;;21.10;99.90;;;;;;5061171;28;20025;-70
2023/06/27 05:48:37;;;;;;;7.75;2.15;;;21.80;99.90;;;;;;5077552;28;20032;-69
2023/06/27 05:51:03;;;;;;;5.65;1.90;;;22.60;99.90;;;;;;5080876;28;20358;-70
2023/06/27 05:53:28;;;;;;;4.60;1.63;;;23.40;99.60;;;;;;5067163;28;20036;-70
2023/06/27 05:55:54;;;;;;;6.95;2.47;;;24.30;98.40;;;;;;5075322;28;20028;-70
2023/06/27 05:58:19;;;;;;;5.50;2.17;;;25.20;96.50;;;;;;5062367;28;20048;-71
2023/06/27 06:00:45;;;;;;;5.35;1.92;;;26.10;94.50;;;;;;5078118;28;20095;-70
2023/06/27 06:03:10;;;;;;;9.63;2.13;;;26.90;93.20;;;;;;5081261;28;20032;-70
2023/06/27 06:05:36;;;;;;;7.25;1.48;;;27.70;92.10;;;;;;5078150;28;20024;-70
2023/06/27 06:08:01;;;;;;;6.40;1.23;;;28.40;91.00;;;;;;5072162;28;20021;-68
2023/06/27 06:10:27;;;;;;;6.13;1.40;;;29.10;90.10;;;;;;5087552;28;20054;-69
2023/06/27 06:12:52;;;;;;;7.45;1.52;;;29.70;88.70;;;;;;5075872;28;20103;-68
2023/06/27 06:15:18;;;;;;;7.10;1.48;;;30.20;86.10;;;;;;5081069;28;20029;-70
2023/06/27 06:17:43;;;;;;;9.52;1.50;;;30.40;84.60;;;;;;5074796;28;20035;-69
2023/06/27 06:20:10;;;;;;;5.03;1.60;;;30.60;83.30;;;;;;5070002;28;20033;-69
2023/06/27 06:22:36;;;;;;;3.30;1.25;;;30.70;82.20;;;;;;5067767;28;20040;-70
2023/06/27 06:25:03;;;;;;;4.13;1.25;;;30.70;80.70;;;;;;5082944;28;20108;-70
2023/06/27 06:27:29;;;;;;;9.27;2.40;;;30.80;79.80;;;;;;5076405;28;20029;-71
2023/06/27 06:29:54;;;;;;;4.13;1.08;;;30.90;79.60;;;;;;5065391;28;20043;-70
2023/06/27 06:32:20;;;;;;;3.95;1.23;;;31.20;78.80;;;;;;5052647;28;20077;-72
2023/06/27 06:34:47;;;;;;;5.10;1.33;;;31.70;78.30;;;;;;5054322;28;20053;-69
2023/06/27 06:37:14;;;;;;;5.72;1.30;;;32.00;76.60;;;;;;5070239;28;20850;-70
2023/06/27 06:39:41;;;;;;;5.65;1.30;;;32.30;75.60;;;;;;5067584;28;20037;-69
2023/06/27 06:42:07;;;;;;;3.60;1.38;;;32.60;74.40;;;;;;5071063;28;20098;-69
2023/06/27 06:44:33;;;;;;;5.50;1.02;;;32.70;73.80;;;;;;5053580;28;20049;-70
2023/06/27 06:46:58;;;;;;;2.88;1.05;;;32.80;73.60;;;;;;5070295;28;20041;-68
2023/06/27 06:49:24;;;;;;;4.57;1.40;;;32.70;72.30;;;;;;5075432;28;20032;-69
2023/06/27 06:51:50;;;;;;;4.75;1.20;;;32.70;72.50;;;;;;5076385;28;20112;-69
2023/06/27 06:54:15;;;;;;;2.70;1.13;;;32.80;72.10;;;;;;5060011;28;20468;-70
2023/06/27 06:56:41;;;;;;;5.07;1.30;;;32.90;71.30;;;;;;5085303;28;20024;-69
2023/06/27 06:59:06;;;;;;;3.95;1.13;;;33.10;70.90;;;;;;5081090;28;20063;-70
2023/06/27 07:01:32;;;;;;;2.80;0.82;;;33.20;69.60;;;;;;5075000;28;20115;-69
2023/06/27 07:03:57;;;;;;;3.00;0.95;;;32.60;70.90;;;;;;5077664;28;20024;-69
2023/06/27 07:06:23;;;;;;;4.97;1.30;;;31.70;71.60;;;;;;5062030;28;20474;-70
2023/06/27 07:08:49;;;;;;;5.45;1.13;;;31.00;72.70;;;;;;5087440;28;20028;-70
2023/06/27 07:11:14;;;;;;;6.68;1.25;;;31.10;72.20;;;;;;5073666;28;20082;-69
2023/06/27 07:13:40;;;;;;;4.68;1.08;;;31.50;71.00;;;;;;5067844;28;20400;-68
2023/06/27 07:16:05;;;;;;;6.25;1.08;;;32.00;70.80;;;;;;5087106;28;20046;-69
2023/06/27 07:18:31;;;;;;;5.15;0.95;;;31.90;70.70;;;;;;5076960;28;20114;-69
2023/06/27 07:20:56;;;;;;;5.10;1.15;;;31.90;70.40;;;;;;5076259;28;20131;-67
2023/06/27 07:23:22;;;;;;;6.60;1.40;;;32.10;70.10;;;;;;5082851;28;20039;-69
2023/06/27 07:25:47;;;;;;;4.32;1.25;;;32.30;70.40;;;;;;5086636;28;20094;-69
2023/06/27 07:28:13;;;;;;;5.53;1.55;;;32.30;69.60;;;;;;5078882;28;20029;-69
2023/06/27 07:30:38;;;;;;;6.28;1.25;;;32.60;69.40;;;;;;5087231;28;20063;-67
2023/06/27 07:33:04;;;;;;;4.40;1.45;;;33.00;68.60;;;;;;5074662;28;20034;-69
2023/06/27 07:35:30;;;;;;;6.65;1.10;;;33.20;68.50;;;;;;5068590;28;20508;-68
2023/06/27 07:37:55;;;;;;;2.47;0.80;;;33.40;68.50;;;;;;5079762;28;20103;-69
2023/06/27 07:40:21;;;;;;;3.97;0.90;;;33.50;68.20;;;;;;5082996;28;20058;-69
2023/06/27 07:42:47;;;;;;;2.47;0.85;;;33.40;67.90;;;;;;5080646;28;20110;-68
2023/06/27 07:45:12;;;;;;;5.95;1.15;;;33.60;67.80;;;;;;5088011;28;20039;-69
2023/06/27 07:47:38;;;;;;;4.80;1.30;;;33.40;66.90;;;;;;5079557;28;20035;-67
2023/06/27 07:50:04;;;;;;;6.82;1.20;;;32.60;66.90;;;;;;5085106;28;20056;-68
2023/06/27 07:52:30;;;;;;;4.03;1.05;;;32.00;68.10;;;;;;5072206;28;20103;-69
2023/06/27 07:54:56;;;;;;;4.40;0.95;;;31.40;69.00;;;;;;5084886;28;20113;-69
2023/06/27 07:57:21;;;;;;;4.95;1.30;;;30.90;70.10;;;;;;5080578;28;20742;-69
2023/06/27 07:59:47;;;;;;;6.47;1.08;;;30.30;70.50;;;;;;5089805;28;20032;-71
2023/06/27 08:02:13;;;;;;;3.22;1.02;;;29.60;72.10;;;;;;5069090;28;20480;-69
2023/06/27 08:04:38;;;;;;;5.82;1.27;;;28.80;72.90;;;;;;5088999;28;20105;-69
2023/06/27 08:07:04;;;;;;;6.72;1.35;;;28.10;73.80;;;;;;5084387;28;20086;-70
2023/06/27 08:09:30;;;;;;;3.97;1.40;;;27.60;75.30;;;;;;5072029;28;20036;-68
2023/06/27 08:11:55;;;;;;;6.32;1.63;;;27.20;76.00;;;;;;5075625;28;20098;-69
2023/06/27 08:14:21;;;;;;;7.75;1.40;;;27.00;76.50;;;;;;5091291;28;20031;-69
2023/06/27 08:16:46;;;;;;;7.32;1.13;;;26.90;77.60;;;;;;5072594;28;20058;-69
2023/06/27 08:19:12;;;;;;;6.93;1.45;;;26.90;78.20;;;;;;5068238;28;20028;-69
2023/06/27 08:21:37;;;;;;;4.05;1.17;;;26.80;78.90;;;;;;5065139;28;20041;-69
2023/06/27 08:24:03;;;;;;;5.50;1.42;;;26.60;78.80;;;;;;5091236;28;20081;-69
2023/06/27 08:26:29;;;;;;;5.22;1.27;;;26.30;80.10;;;;;;5074366;28;21397;-70
2023/06/27 08:28:55;;;;;;;5.25;1.50;;;26.00;79.80;;;;;;5086011;28;20444;-69
2023/06/27 08:31:20;;;;;;;7.30;1.38;;;25.80;80.50;;;;;;5068929;28;20036;-69
2023/06/27 08:33:46;;;;;;;4.97;1.27;;;25.60;81.00;;;;;;5058694;28;20060;-68
2023/06/27 08:36:11;;;;;;;6.25;1.40;;;25.30;81.70;;;;;;5090548;28;20032;-69
2023/06/27 08:38:37;;;;;;;5.03;1.20;;;25.20;82.60;;;;;;5088484;28;20124;-69
2023/06/27 08:41:03;;;;;;;5.72;1.35;;;25.10;83.20;;;;;;5078297;28;20079;-70
2023/06/27 08:43:29;;;;;;;6.03;1.73;;;25.00;83.30;;;;;;5073029;28;20059;-69
2023/06/27 08:45:55;;;;;;;6.93;1.45;;;25.00;83.70;;;;;;5090541;28;20025;-69
2023/06/27 08:48:21;;;;;;;5.93;1.40;;;25.00;84.10;;;;;;5070296;28;20020;-69
2023/06/27 08:50:52;;;;;;;6.93;3.08;;;25.00;84.40;;;;;;5067149;28;20122;-69
2023/06/27 08:53:20;;;;;;;8.27;1.88;;;25.00;84.70;;;;;;5056515;28;20033;-68
2023/06/27 08:56:07;;;;;;;5.72;1.73;;;24.90;84.70;;;;;;5067500;28;20119;-69
2023/06/27 08:58:46;;;;;;;7.57;1.60;;;24.80;85.50;;;;;;5078302;28;20040;-70
2023/06/27 09:01:12;;;;;;;7.75;2.20;;;24.80;86.00;;;;;;5076710;28;20119;-69
2023/06/27 09:03:38;;;;;;;11.20;3.55;;;24.70;85.90;;;;;;5065055;28;20029;-70
2023/06/27 09:06:05;;;;;;;9.48;2.00;;;24.70;86.40;;;;;;5077759;28;20033;-69
2023/06/27 09:08:32;;;;;;;5.85;1.90;;;24.50;86.50;;;;;;5081426;28;20125;-68
2023/06/27 09:10:59;;;;;;;5.43;1.58;;;24.50;87.20;;;;;;5077749;28;20025;-69
2023/06/27 09:13:26;;;;;;;7.75;1.90;;;24.40;87.60;;;;;;5067828;28;20462;-68
2023/06/27 09:15:51;;;;;;;6.78;1.50;;;24.30;88.00;;;;;;5058346;28;20487;-69
2023/06/27 09:18:17;;;;;;;5.75;1.65;;;24.20;88.60;;;;;;5073661;28;20081;-68
2023/06/27 09:20:43;;;;;;;7.40;1.88;;;24.10;89.00;;;;;;5086575;28;20090;-68
2023/06/27 09:23:10;;;;;;;7.82;2.38;;;23.80;90.00;;;;;;5064669;28;20040;-69
2023/06/27 09:25:35;;;;;;;6.10;1.50;;;23.70;90.50;;;;;;5057101;28;20106;-69
2023/06/27 09:28:17;;;;;;;4.60;1.60;;;23.70;90.80;;;;;;5054751;28;20489;-68
2023/06/27 09:30:56;;;;;;;7.93;2.20;;;23.80;90.70;;;;;;5077281;28;20035;-68
2023/06/27 09:33:22;;;;;;;9.27;3.03;;;23.90;90.80;;;;;;5060800;28;20052;-70
2023/06/27 09:35:48;;;;;;;10.70;3.33;;;24.00;91.10;;;;;;5081004;28;20050;-69
2023/06/27 09:38:13;;;;;;;8.48;2.35;;;24.10;90.70;;;;;;5090014;28;20089;-70
2023/06/27 09:40:40;;;;;;;7.88;1.98;;;24.30;90.20;;;;;;5086948;28;20093;-70
2023/06/27 09:43:07;;;;;;;6.20;2.08;;;24.60;90.20;;;;;;5072184;28;20025;-69
2023/06/27 09:45:33;;;;;;;7.78;1.50;;;25.00;89.90;;;;;;5069621;28;20160;-69
2023/06/27 09:47:59;;;;;;;11.95;3.70;;;25.30;88.50;;;;;;5089175;28;20123;-69
2023/06/27 09:50:29;;;;;;;8.23;1.70;;;25.40;88.50;;;;;;5076299;28;20020;-69
2023/06/27 09:52:57;;;;;;;7.55;1.67;;;25.50;88.00;;;;;;5076326;28;20033;-69
2023/06/27 09:55:23;;;;;;;8.23;1.70;;;25.60;88.40;;;;;;5077201;28;20073;-68
2023/06/27 09:57:49;;;;;;;6.28;2.08;;;25.60;88.00;;;;;;5075705;28;20036;-69
2023/06/27 10:00:20;;;;;;;11.23;2.15;;;25.60;88.20;;;;;;5089477;28;20029;-70
2023/06/27 10:02:49;;;;;;;12.05;2.20;;;25.60;87.80;;;;;;5065921;28;20036;-68
2023/06/27 10:05:21;;;;;;;6.07;2.13;;;25.70;87.20;;;;;;5083295;28;20467;-69
2023/06/27 10:07:49;;;;;;;5.82;1.60;;;25.70;87.80;;;;;;5076117;28;20032;-69
2023/06/27 10:10:15;;;;;;;10.52;2.40;;;25.70;88.30;;;;;;5071008;28;20032;-69
2023/06/27 10:12:42;;;;;;;6.60;1.55;;;25.90;88.50;;;;;;5069557;28;20472;-68
2023/06/27 10:15:10;;;;;;;6.15;1.65;;;25.90;87.20;;;;;;5076769;28;20032;-69
2023/06/27 10:17:36;;;;;;;6.15;1.45;;;26.10;87.10;;;;;;5073264;28;20052;-69
2023/06/27 10:20:10;;;;;;;7.40;2.20;;;26.20;86.30;;;;;;5084693;28;20436;-69
2023/06/27 10:22:39;;;;;;;8.02;1.85;;;26.40;86.40;;;;;;5074278;28;20028;-69
2023/06/27 10:25:06;;;;;;;5.45;1.35;;;26.60;85.00;;;;;;5079485;28;20039;-69
2023/06/27 10:27:39;;;;;;;7.47;1.60;;;26.60;84.70;;;;;;5077025;28;20024;-68
2023/06/27 10:30:17;;;;;;;8.45;1.52;;;26.50;85.10;;;;;;5070031;28;20036;-70
2023/06/27 10:32:46;;;;;;;5.70;1.50;;;26.60;85.50;;;;;;5066087;28;20038;-70
2023/06/27 10:35:24;;;;;;;6.40;1.38;;;26.60;85.20;;;;;;5066140;28;20040;-69
2023/06/27 10:38:08;;;;;;;7.20;1.60;;;26.60;84.70;;;;;;5076949;28;20393;-69
2023/06/27 10:41:12;;;;;;;3.97;1.48;;;26.80;84.80;;;;;;5082966;28;20102;-69
2023/06/27 10:43:46;;;;;;;5.35;1.52;;;27.30;84.30;;;;;;5076370;28;20082;-68
2023/06/27 10:46:26;;;;;;;6.57;1.90;;;27.60;83.40;;;;;;5065940;28;20020;-69
2023/06/27 10:49:06;;;;;;;9.15;1.90;;;27.80;82.00;;;;;;5067646;28;20025;-69
2023/06/27 10:51:43;;;;;;;5.97;1.40;;;27.90;81.60;;;;;;5051158;28;20037;-68
2023/06/27 10:54:09;;;;;;;2.45;1.38;;;28.10;82.00;;;;;;5071012;28;20059;-69
2023/06/27 10:56:37;;;;;;;6.05;1.92;;;28.30;81.50;;;;;;5073576;28;20052;-70
2023/06/27 10:59:04;;;;;;;6.25;1.73;;;28.40;80.30;;;;;;5071987;28;20031;-69
2023/06/27 11:01:36;;;;;;;5.35;1.67;;;28.50;79.50;;;;;;5060470;28;20045;-68
2023/06/27 11:04:22;;;;;;;7.53;1.90;;;28.60;78.60;;;;;;5080884;28;20052;-69
2023/06/27 11:06:48;;;;;;;4.68;1.70;;;28.60;79.90;;;;;;5072813;28;20071;-69
2023/06/27 11:09:16;;;;;;;10.60;1.98;;;28.30;80.50;;;;;;5070325;28;20024;-70
2023/06/27 11:11:53;;;;;;;3.13;1.58;;;28.00;80.60;;;;;;5062810;28;20029;-70
2023/06/27 11:14:33;;;;;;;8.25;2.35;;;28.00;81.10;;;;;;5076904;28;20384;-69
2023/06/27 11:16:59;;;;;;;7.20;2.03;;;28.20;79.20;;;;;;5059543;28;20476;-69
2023/06/27 11:19:25;;;;;;;9.85;2.78;;;28.50;78.60;;;;;;5079789;28;20355;-68
2023/06/27 11:21:50;;;;;;;6.57;1.60;;;28.80;79.30;;;;;;5089811;28;20081;-70
2023/06/27 11:24:17;;;;;;;7.63;2.08;;;29.30;77.60;;;;;;5077994;28;20088;-68
2023/06/27 11:26:51;;;;;;;8.07;2.00;;;29.50;76.80;;;;;;5069274;28;20032;-69
2023/06/27 11:29:17;;;;;;;6.00;1.52;;;29.80;77.50;;;;;;5072993;28;20052;-69
2023/06/27 11:31:43;;;;;;;6.93;2.08;;;30.30;76.40;;;;;;5068269;28;20029;-69
2023/06/27 11:34:08;;;;;;;5.78;1.67;;;31.00;75.20;;;;;;5087424;28;20040;-68
2023/06/27 11:36:38;;;;;;;4.85;1.65;;;31.30;74.30;;;;;;5074939;28;20089;-68
2023/06/27 11:39:06;;;;;;;5.60;1.45;;;31.00;74.10;;;;;;5069493;28;20036;-68
2023/06/27 11:41:31;;;;;;;5.60;1.67;;;30.70;73.90;;;;;;5081900;28;20046;-69
2023/06/27 11:43:57;;;;;;;4.00;1.70;;;30.40;73.50;;;;;;5088606;28;20028;-69
2023/06/27 11:46:23;;;;;;;11.55;2.28;;;30.40;74.30;;;;;;5077588;28;20031;-69
2023/06/27 11:48:49;;;;;;;9.23;2.22;;;30.60;75.50;;;;;;5077047;28;20025;-68
2023/06/27 11:51:14;;;;;;;4.38;1.80;;;30.70;74.90;;;;;;5081630;28;20040;-68
2023/06/27 11:53:50;;;;;;;5.03;1.70;;;30.80;74.80;;;;;;5091009;28;20120;-69
2023/06/27 11:56:17;;;;;;;6.22;1.55;;;30.70;74.60;;;;;;5072734;28;20043;-69
2023/06/27 11:58:46;;;;;;;6.05;1.90;;;30.70;74.70;;;;;;5062833;28;20147;-68
2023/06/27 12:01:14;;;;;;;5.90;1.90;;;30.70;74.70;;;;;;5066926;28;20029;-69
2023/06/27 12:03:45;;;;;;;10.73;1.70;;;30.60;75.10;;;;;;5076911;28;20031;-68
2023/06/27 12:06:26;;;;;;;7.23;1.40;;;30.70;73.90;;;;;;5071886;28;20484;-68
2023/06/27 12:08:52;;;;;;;10.07;1.83;;;30.60;73.70;;;;;;5084451;28;20282;-68
2023/06/27 12:11:17;;;;;;;10.27;2.10;;;30.60;74.10;;;;;;5091204;28;20476;-70
2023/06/27 12:13:43;;;;;;;7.90;1.70;;;30.70;74.50;;;;;;5085244;28;20445;-69
2023/06/27 12:16:25;;;;;;;6.47;1.50;;;30.90;74.40;;;;;;5090290;28;20054;-68
2023/06/27 12:18:51;;;;;;;9.75;1.67;;;31.00;73.50;;;;;;5080264;28;20491;-69
2023/06/27 12:21:16;;;;;;;6.00;1.55;;;30.90;73.00;;;;;;5083257;28;20043;-69
2023/06/27 12:23:42;;;;;;;6.57;1.73;;;30.70;73.90;;;;;;5093880;28;20024;-70
2023/06/27 12:26:07;;;;;;;5.30;1.75;;;30.50;74.40;;;;;;5078520;28;20020;-71
2023/06/27 12:28:33;;;;;;;6.78;1.83;;;30.30;73.80;;;;;;5086934;28;20062;-69
2023/06/27 12:30:59;;;;;;;6.18;1.67;;;29.90;74.20;;;;;;5070907;28;20082;-69
2023/06/27 12:33:24;;;;;;;7.75;1.70;;;29.70;74.80;;;;;;5088673;28;20048;-69
2023/06/27 12:35:50;;;;;;;6.13;1.77;;;29.40;75.80;;;;;;5080148;28;20108;-70
2023/06/27 12:38:16;;;;;;;6.18;1.80;;;29.40;76.30;;;;;;5080628;28;20020;-69
2023/06/27 12:40:41;;;;;;;7.22;1.65;;;29.30;76.00;;;;;;5067570;28;20120;-69
2023/06/27 12:43:07;;;;;;;7.28;2.35;;;29.20;75.90;;;;;;5069956;28;20060;-69
2023/06/27 12:45:32;;;;;;;11.00;1.88;;;29.20;75.60;;;;;;5066748;28;20038;-69
2023/06/27 12:47:58;;;;;;;6.78;1.73;;;29.20;75.60;;;;;;5075237;28;20450;-69
2023/06/27 12:50:24;;;;;;;8.52;1.58;;;29.20;74.70;;;;;;5082567;28;20027;-69
2023/06/27 12:52:50;;;;;;;5.30;2.33;;;29.10;73.30;;;;;;5085412;28;20128;-69
2023/06/27 12:55:16;;;;;;;6.35;2.08;;;28.90;74.70;;;;;;5076184;28;20036;-69
2023/06/27 12:57:42;;;;;;;6.82;2.10;;;28.50;76.20;;;;;;5090417;28;20056;-70
2023/06/27 13:00:09;;;;;;;5.47;1.88;;;28.30;76.30;;;;;;5070070;28;20382;-69
2023/06/27 13:02:36;;;;;;;6.00;1.63;;;28.00;77.20;;;;;;5090348;28;20036;-70
2023/06/27 13:05:03;;;;;;;9.68;2.05;;;27.80;78.60;;;;;;5074028;28;20029;-69
2023/06/27 13:07:28;;;;;;;7.97;1.80;;;27.70;79.70;;;;;;5062034;28;20031;-70
2023/06/27 13:09:54;;;;;;;10.50;1.90;;;27.70;80.50;;;;;;5077464;28;20032;-70
2023/06/27 13:12:21;;;;;;;6.20;2.00;;;27.70;80.10;;;;;;5078287;28;20062;-69
2023/06/27 13:14:46;;;;;;;5.55;1.63;;;27.60;81.10;;;;;;5093455;28;20020;-70
2023/06/27 13:17:12;;;;;;;7.90;1.58;;;27.60;80.90;;;;;;5075339;28;20025;-68
2023/06/27 13:19:37;;;;;;;8.82;1.90;;;27.60;80.20;;;;;;5086942;28;21987;-67
2023/06/27 13:22:03;;;;;;;5.22;1.60;;;27.60;78.50;;;;;;5064933;28;20024;-69
2023/06/27 13:24:31;;;;;;;7.93;1.50;;;27.50;79.10;;;;;;5079461;28;20155;-70
2023/06/27 13:26:57;;;;;;;4.00;1.98;;;27.50;79.60;;;;;;5065694;28;20108;-69
2023/06/27 13:29:23;;;;;;;5.10;2.08;;;27.60;79.90;;;;;;5077036;28;20028;-69
2023/06/27 13:31:48;;;;;;;3.85;1.63;;;27.70;80.20;;;;;;5080707;28;20044;-70
2023/06/27 13:34:14;;;;;;;6.40;1.63;;;27.90;79.40;;;;;;5065215;28;20117;-70
2023/06/27 13:36:40;;;;;;;5.88;1.60;;;28.00;79.60;;;;;;5084404;28;20056;-69
2023/06/27 13:39:06;;;;;;;5.05;1.67;;;28.00;79.60;;;;;;5079283;28;20031;-70
2023/06/27 13:41:31;;;;;;;8.75;2.22;;;27.90;78.80;;;;;;5063015;28;20052;-68
2023/06/27 13:43:57;;;;;;;5.75;1.55;;;27.80;79.50;;;;;;5072631;28;20028;-68
2023/06/27 13:46:35;;;;;;;4.45;1.77;;;27.60;78.70;;;;;;5076969;28;20040;-69
2023/06/27 13:49:01;;;;;;;6.75;1.60;;;27.30;78.90;;;;;;5063955;28;20024;-70
2023/06/27 13:51:27;;;;;;;5.85;1.35;;;27.10;79.10;;;;;;5057092;28;20634;-71
2023/06/27 13:53:52;;;;;;;4.95;1.42;;;27.00;79.20;;;;;;5084535;28;20036;-68
2023/06/27 13:56:18;;;;;;;6.30;1.77;;;26.80;77.80;;;;;;5078439;28;20086;-70
2023/06/27 13:58:47;;;;;;;5.15;1.80;;;26.60;78.40;;;;;;5067255;28;20031;-71
2023/06/27 14:01:13;;;;;;;4.75;1.63;;;26.40;78.80;;;;;;5077071;28;20064;-68
2023/06/27 14:03:39;;;;;;;3.38;1.65;;;26.20;78.90;;;;;;5089024;28;20066;-68
2023/06/27 14:06:05;;;;;;;5.40;1.90;;;26.10;78.30;;;;;;5070003;28;20443;-69
2023/06/27 14:08:30;;;;;;;7.13;1.70;;;26.00;79.00;;;;;;5083580;28;20025;-69
2023/06/27 14:11:05;;;;;;;5.82;2.05;;;26.00;79.40;;;;;;5082106;28;20039;-70
2023/06/27 14:13:30;;;;;;;6.72;1.83;;;25.80;79.90;;;;;;5067805;28;20098;-70
2023/06/27 14:15:56;;;;;;;6.55;1.75;;;25.60;79.50;;;;;;5086010;28;20415;-71
2023/06/27 14:18:22;;;;;;;5.18;1.92;;;25.50;80.80;;;;;;5070198;28;20036;-69
2023/06/27 14:20:48;;;;;;;7.38;2.10;;;25.40;81.60;;;;;;5073112;28;20392;-69
2023/06/27 14:23:13;;;;;;;7.35;2.35;;;25.40;82.00;;;;;;5067777;28;20032;-70
2023/06/27 14:25:39;;;;;;;4.55;1.55;;;25.30;82.10;;;;;;5070457;28;20033;-69
2023/06/27 14:28:05;;;;;;;7.63;2.38;;;25.30;81.70;;;;;;5066608;28;20108;-69
2023/06/27 14:30:32;;;;;;;5.20;1.73;;;25.20;81.40;;;;;;5054439;28;20149;-68
2023/06/27 14:32:57;;;;;;;4.45;1.50;;;25.20;81.60;;;;;;5050973;28;20125;-69
2023/06/27 14:35:25;;;;;;;5.38;1.80;;;25.10;81.30;;;;;;5065455;28;20540;-69
2023/06/27 14:37:50;;;;;;;8.98;1.83;;;25.10;81.50;;;;;;5062597;28;20032;-70
2023/06/27 14:40:18;;;;;;;7.32;1.58;;;25.00;82.30;;;;;;5085813;28;20077;-68
2023/06/27 14:42:43;;;;;;;5.15;1.23;;;25.00;82.70;;;;;;5072749;28;20027;-68
2023/06/27 14:45:09;;;;;;;4.50;1.30;;;24.90;82.50;;;;;;5068836;28;20028;-69
2023/06/27 14:47:35;;;;;;;5.75;1.50;;;24.90;81.70;;;;;;5053085;28;20043;-69
2023/06/27 14:50:06;;;;;;;7.15;1.33;;;24.90;81.40;;;;;;5063528;28;20036;-69
2023/06/27 14:52:32;;;;;;;4.45;1.27;;;24.90;81.20;;;;;;5075264;28;20481;-68
2023/06/27 14:54:57;;;;;;;5.97;1.35;;;25.10;81.30;;;;;;5075230;28;20157;-69
2023/06/27 14:57:23;;;;;;;5.57;1.50;;;25.20;81.00;;;;;;5072873;28;20139;-69
2023/06/27 14:59:49;;;;;;;4.88;1.60;;;25.40;81.00;;;;;;5061710;28;20045;-69
2023/06/27 15:02:15;;;;;;;6.68;1.60;;;25.60;80.80;;;;;;5071594;28;20344;-69
2023/06/27 15:04:41;;;;;;;4.90;1.42;;;25.90;79.80;;;;;;5072047;28;20452;-68
2023/06/27 15:07:17;;;;;;;6.07;1.30;;;26.20;79.00;;;;;;5076799;28;20039;-69
2023/06/27 15:09:43;;;;;;;4.70;1.25;;;26.50;78.70;;;;;;5070569;28;20051;-70
2023/06/27 15:12:09;;;;;;;5.45;1.40;;;26.70;77.90;;;;;;5060136;28;20020;-69
2023/06/27 15:14:35;;;;;;;2.45;0.80;;;26.70;76.70;;;;;;5054612;28;20494;-69
2023/06/27 15:17:00;;;;;;;5.38;1.52;;;26.70;76.50;;;;;;5053215;28;20525;-69
2023/06/27 15:19:26;;;;;;;4.00;1.08;;;26.60;77.80;;;;;;5049525;28;20358;-71
2023/06/27 15:21:52;;;;;;;3.63;1.23;;;26.60;77.70;;;;;;5053008;28;20036;-70
2023/06/27 15:24:18;;;;;;;7.50;2.42;;;26.60;78.70;;;;;;5089751;28;20422;-68
2023/06/27 15:26:43;;;;;;;5.68;1.80;;;26.60;79.10;;;;;;5092540;28;20086;-69
2023/06/27 15:29:09;;;;;;;5.85;1.65;;;26.70;77.90;;;;;;5078152;28;20461;-68
2023/06/27 15:31:35;;;;;;;7.57;1.60;;;26.70;78.60;;;;;;5070243;28;20024;-69
2023/06/27 15:34:01;;;;;;;7.00;1.80;;;26.70;76.80;;;;;;5071470;28;20060;-68
2023/06/27 15:36:26;;;;;;;8.57;1.95;;;26.70;77.30;;;;;;5070892;28;20028;-69
2023/06/27 15:38:53;;;;;;;5.85;1.27;;;26.70;77.70;;;;;;5071091;28;20036;-69
2023/06/27 15:41:19;;;;;;;7.10;1.75;;;26.70;77.40;;;;;;5068061;28;20044;-70
2023/06/27 15:43:46;;;;;;;7.72;2.13;;;26.70;78.50;;;;;;5086336;28;20032;-68
2023/06/27 15:46:11;;;;;;;5.85;1.55;;;26.80;78.70;;;;;;5075877;28;20487;-69
2023/06/27 15:48:37;;;;;;;8.75;2.50;;;26.80;79.70;;;;;;5057082;28;20029;-69
2023/06/27 15:51:02;;;;;;;6.55;1.35;;;26.70;80.20;;;;;;5060055;28;20033;-69
2023/06/27 15:53:29;;;;;;;6.85;1.65;;;26.60;80.00;;;;;;5055243;28;20028;-69
2023/06/27 15:55:55;;;;;;;9.38;2.33;;;26.60;80.00;;;;;;5074967;28;20100;-69
2023/06/27 15:58:20;;;;;;;3.17;1.40;;;26.60;79.70;;;;;;5071655;28;20155;-68
2023/06/27 16:00:46;;;;;;;5.15;1.63;;;26.60;79.70;;;;;;5074671;28;20031;-68
2023/06/27 16:03:11;;;;;;;7.10;1.73;;;26.50;79.40;;;;;;5066940;28;20115;-68
2023/06/27 16:05:37;;;;;;;8.85;2.17;;;26.50;79.10;;;;;;5086007;28;20040;-68
2023/06/27 16:08:02;;;;;;;7.18;1.73;;;26.50;79.40;;;;;;5074708;28;20031;-68
2023/06/27 16:10:29;;;;;;;5.78;1.65;;;26.40;79.60;;;;;;5074132;28;20039;-69
2023/06/27 16:12:55;;;;;;;6.22;1.88;;;26.30;80.70;;;;;;5074584;28;20039;-70
2023/06/27 16:15:20;;;;;;;8.02;1.63;;;26.20;80.50;;;;;;5074993;28;20024;-70
2023/06/27 16:17:46;;;;;;;7.60;2.03;;;26.10;80.80;;;;;;5074953;28;20036;-70
2023/06/27 16:20:12;;;;;;;6.28;1.70;;;26.10;81.30;;;;;;5066567;28;20040;-70
2023/06/27 16:22:38;;;;;;;4.72;1.88;;;26.00;80.50;;;;;;5054630;28;20029;-69
2023/06/27 16:25:05;;;;;;;12.82;2.50;;;25.90;80.40;;;;;;5068639;28;20025;-69
2023/06/27 16:27:30;;;;;;;12.20;3.05;;;25.90;80.20;;;;;;5074178;28;20111;-69
2023/06/27 16:29:57;;;;;;;6.50;2.15;;;25.90;80.20;;;;;;5087349;28;20112;-69
2023/06/27 16:32:23;;;;;;;6.93;1.98;;;25.90;80.30;;;;;;5094835;28;20028;-70
2023/06/27 16:34:48;;;;;;;8.65;2.25;;;25.90;80.40;;;;;;5093651;28;20047;-70
2023/06/27 16:37:14;;;;;;;7.10;1.95;;;25.80;81.10;;;;;;5077304;28;20037;-69
2023/06/27 16:39:40;;;;;;;7.97;1.92;;;25.70;80.50;;;;;;5064439;28;20036;-69
2023/06/27 16:42:07;;;;;;;8.73;2.17;;;25.60;80.80;;;;;;5072136;28;20029;-69
2023/06/27 16:44:33;;;;;;;7.28;2.30;;;25.50;80.90;;;;;;5079809;28;20135;-69
2023/06/27 16:46:58;;;;;;;9.23;2.20;;;25.40;81.30;;;;;;5062801;28;20471;-69
2023/06/27 16:49:25;;;;;;;6.75;1.67;;;25.40;82.10;;;;;;5061348;28;20068;-68
2023/06/27 16:51:51;;;;;;;7.32;2.10;;;25.30;82.80;;;;;;5073570;28;20021;-68
2023/06/27 16:54:22;;;;;;;6.38;1.73;;;25.20;81.80;;;;;;5065384;28;20107;-67
2023/06/27 16:56:48;;;;;;;6.70;1.80;;;25.10;81.70;;;;;;5074301;28;20055;-68
2023/06/27 16:59:14;;;;;;;5.97;1.65;;;25.00;82.90;;;;;;5073544;28;20494;-72
2023/06/27 17:01:40;;;;;;;9.13;2.03;;;24.80;81.80;;;;;;5072652;28;20557;-69
2023/06/27 17:04:06;;;;;;;8.82;2.17;;;24.70;82.80;;;;;;5073159;28;20025;-69
2023/06/27 17:06:32;;;;;;;9.60;1.98;;;24.50;82.80;;;;;;5070490;28;20028;-69
2023/06/27 17:08:57;;;;;;;6.88;1.88;;;24.30;83.10;;;;;;5073369;28;20597;-70